sensor_id;sensor_type;location;lat;lon;timestamp;pressure;altitude;pressure_sealevel;temperature;humidity
77147;BME280;66121;52.584;9.694;2023-04-24T00:01:38;99712.16;;;11.73;84.12
77147;BME280;66121;52.584;9.694;2023-04-24T00:04:05;99723.19;;;11.76;83.32
77147;BME280;66121;52.584;9.694;2023-04-24T00:06:31;99720.09;;;11.71;82.27
77147;BME280;66121;52.584;9.694;2023-04-24T00:09:00;99710.53;;;11.79;82.59
77147;BME280;66121;52.584;9.694;2023-04-24T00:11:26;99720.56;;;11.96;81.96
77147;BME280;66121;52.584;9.694;2023-04-24T00:13:52;99716.34;;;11.84;81.65
77147;BME280;66121;52.584;9.694;2023-04-24T00:16:17;99697.84;;;11.81;81.58
77147;BME280;66121;52.584;9.694;2023-04-24T00:18:42;99706.16;;;11.81;81.39
77147;BME280;66121;52.584;9.694;2023-04-24T00:21:07;99708.75;;;11.92;80.94
77147;BME280;66121;52.584;9.694;2023-04-24T00:23:33;99707.31;;;11.84;81.89
77147;BME280;66121;52.584;9.694;2023-04-24T00:25:58;99706.50;;;11.83;81.52
77147;BME280;66121;52.584;9.694;2023-04-24T00:28:23;99706.09;;;11.85;81.18
77147;BME280;66121;52.584;9.694;2023-04-24T00:30:49;99712.38;;;11.89;81.09
77147;BME280;66121;52.584;9.694;2023-04-24T00:33:14;99692.09;;;11.69;81.83
77147;BME280;66121;52.584;9.694;2023-04-24T00:35:40;99710.91;;;11.77;81.64
77147;BME280;66121;52.584;9.694;2023-04-24T00:38:05;99715.25;;;11.78;80.92
77147;BME280;66121;52.584;9.694;2023-04-24T00:40:31;99697.53;;;11.76;80.93
77147;BME280;66121;52.584;9.694;2023-04-24T00:42:56;99696.44;;;11.66;82.22
77147;BME280;66121;52.584;9.694;2023-04-24T00:45:21;99701.59;;;11.64;81.44
77147;BME280;66121;52.584;9.694;2023-04-24T00:47:48;99697.44;;;11.49;82.85
77147;BME280;66121;52.584;9.694;2023-04-24T00:50:14;99704.75;;;11.62;80.87
77147;BME280;66121;52.584;9.694;2023-04-24T00:52:40;99694.06;;;11.68;80.73
77147;BME280;66121;52.584;9.694;2023-04-24T00:55:06;99698.00;;;11.67;80.65
77147;BME280;66121;52.584;9.694;2023-04-24T00:57:32;99703.16;;;11.65;80.42
77147;BME280;66121;52.584;9.694;2023-04-24T00:59:58;99709.59;;;11.89;78.75
77147;BME280;66121;52.584;9.694;2023-04-24T01:02:23;99711.63;;;11.85;79.17
77147;BME280;66121;52.584;9.694;2023-04-24T01:04:50;99722.28;;;11.86;79.06
77147;BME280;66121;52.584;9.694;2023-04-24T01:07:19;99715.16;;;11.85;78.70
77147;BME280;66121;52.584;9.694;2023-04-24T01:09:47;99716.31;;;11.88;78.20
77147;BME280;66121;52.584;9.694;2023-04-24T01:12:14;99724.56;;;11.91;78.55
77147;BME280;66121;52.584;9.694;2023-04-24T01:14:40;99701.66;;;11.91;77.85
77147;BME280;66121;52.584;9.694;2023-04-24T01:17:05;99706.84;;;11.89;77.55
77147;BME280;66121;52.584;9.694;2023-04-24T01:19:31;99697.63;;;11.65;79.01
77147;BME280;66121;52.584;9.694;2023-04-24T01:21:58;99708.69;;;11.69;78.08
77147;BME280;66121;52.584;9.694;2023-04-24T01:24:25;99697.94;;;11.74;77.45
77147;BME280;66121;52.584;9.694;2023-04-24T01:26:51;99700.38;;;11.69;77.30
77147;BME280;66121;52.584;9.694;2023-04-24T01:29:16;99704.69;;;11.70;75.99
77147;BME280;66121;52.584;9.694;2023-04-24T01:31:42;99711.53;;;11.58;74.91
77147;BME280;66121;52.584;9.694;2023-04-24T01:34:07;99700.69;;;11.40;74.84
77147;BME280;66121;52.584;9.694;2023-04-24T01:36:34;99687.34;;;11.35;74.50
77147;BME280;66121;52.584;9.694;2023-04-24T01:39:00;99697.03;;;11.50;73.55
77147;BME280;66121;52.584;9.694;2023-04-24T01:41:26;99693.28;;;11.34;73.64
77147;BME280;66121;52.584;9.694;2023-04-24T01:43:51;99700.41;;;11.31;74.31
77147;BME280;66121;52.584;9.694;2023-04-24T01:46:17;99686.00;;;11.17;75.13
77147;BME280;66121;52.584;9.694;2023-04-24T01:48:45;99712.03;;;11.12;74.89
77147;BME280;66121;52.584;9.694;2023-04-24T01:51:10;99702.38;;;10.93;75.92
77147;BME280;66121;52.584;9.694;2023-04-24T01:53:35;99707.09;;;10.96;76.52
77147;BME280;66121;52.584;9.694;2023-04-24T01:56:01;99710.69;;;10.90;76.13
77147;BME280;66121;52.584;9.694;2023-04-24T01:58:26;99715.09;;;10.84;74.85
77147;BME280;66121;52.584;9.694;2023-04-24T02:00:52;99710.03;;;10.79;76.61
77147;BME280;66121;52.584;9.694;2023-04-24T02:03:17;99720.78;;;10.63;77.32
77147;BME280;66121;52.584;9.694;2023-04-24T02:05:46;99711.41;;;10.57;77.38
77147;BME280;66121;52.584;9.694;2023-04-24T02:08:11;99715.03;;;10.47;78.63
77147;BME280;66121;52.584;9.694;2023-04-24T02:10:36;99715.47;;;10.38;79.11
77147;BME280;66121;52.584;9.694;2023-04-24T02:13:02;99717.84;;;10.36;79.66
77147;BME280;66121;52.584;9.694;2023-04-24T02:15:27;99709.16;;;10.41;79.94
77147;BME280;66121;52.584;9.694;2023-04-24T02:17:52;99715.41;;;10.45;81.26
77147;BME280;66121;52.584;9.694;2023-04-24T02:20:18;99722.06;;;10.51;81.46
77147;BME280;66121;52.584;9.694;2023-04-24T02:22:43;99716.19;;;10.49;82.07
77147;BME280;66121;52.584;9.694;2023-04-24T02:25:08;99709.09;;;10.48;82.56
77147;BME280;66121;52.584;9.694;2023-04-24T02:27:34;99717.34;;;10.52;81.59
77147;BME280;66121;52.584;9.694;2023-04-24T02:29:59;99717.41;;;10.41;82.41
77147;BME280;66121;52.584;9.694;2023-04-24T02:32:25;99712.59;;;10.52;82.12
77147;BME280;66121;52.584;9.694;2023-04-24T02:34:50;99702.41;;;10.46;82.76
77147;BME280;66121;52.584;9.694;2023-04-24T02:37:16;99692.59;;;10.41;80.79
77147;BME280;66121;52.584;9.694;2023-04-24T02:39:41;99694.00;;;10.60;81.63
77147;BME280;66121;52.584;9.694;2023-04-24T02:42:06;99697.69;;;10.46;82.15
77147;BME280;66121;52.584;9.694;2023-04-24T02:44:33;99688.69;;;10.35;81.63
77147;BME280;66121;52.584;9.694;2023-04-24T02:46:58;99693.41;;;10.34;81.59
77147;BME280;66121;52.584;9.694;2023-04-24T02:49:23;99692.28;;;10.32;81.50
77147;BME280;66121;52.584;9.694;2023-04-24T02:51:49;99689.13;;;10.30;81.47
77147;BME280;66121;52.584;9.694;2023-04-24T02:54:14;99696.09;;;10.45;80.19
77147;BME280;66121;52.584;9.694;2023-04-24T02:56:39;99696.41;;;10.58;79.10
77147;BME280;66121;52.584;9.694;2023-04-24T02:59:05;99688.81;;;10.69;78.80
77147;BME280;66121;52.584;9.694;2023-04-24T03:01:30;99680.19;;;10.63;77.99
77147;BME280;66121;52.584;9.694;2023-04-24T03:03:56;99679.91;;;10.54;78.74
77147;BME280;66121;52.584;9.694;2023-04-24T03:06:21;99681.88;;;10.54;78.40
77147;BME280;66121;52.584;9.694;2023-04-24T03:08:47;99675.41;;;10.67;77.10
77147;BME280;66121;52.584;9.694;2023-04-24T03:11:13;99672.34;;;10.62;76.30
77147;BME280;66121;52.584;9.694;2023-04-24T03:13:38;99666.03;;;10.61;75.69
77147;BME280;66121;52.584;9.694;2023-04-24T03:16:04;99659.38;;;10.55;76.00
77147;BME280;66121;52.584;9.694;2023-04-24T03:18:29;99664.09;;;10.58;75.13
77147;BME280;66121;52.584;9.694;2023-04-24T03:20:55;99662.03;;;10.66;75.10
77147;BME280;66121;52.584;9.694;2023-04-24T03:23:20;99663.28;;;10.61;75.08
77147;BME280;66121;52.584;9.694;2023-04-24T03:25:46;99666.44;;;10.60;74.67
77147;BME280;66121;52.584;9.694;2023-04-24T03:28:13;99666.25;;;10.81;73.10
77147;BME280;66121;52.584;9.694;2023-04-24T03:30:38;99659.94;;;10.80;72.69
77147;BME280;66121;52.584;9.694;2023-04-24T03:33:03;99665.63;;;10.63;73.84
77147;BME280;66121;52.584;9.694;2023-04-24T03:35:29;99675.38;;;10.74;72.92
77147;BME280;66121;52.584;9.694;2023-04-24T03:37:55;99670.31;;;10.66;72.74
77147;BME280;66121;52.584;9.694;2023-04-24T03:40:20;99683.97;;;10.80;72.63
77147;BME280;66121;52.584;9.694;2023-04-24T03:42:45;99682.16;;;10.66;72.44
77147;BME280;66121;52.584;9.694;2023-04-24T03:45:10;99691.31;;;10.53;73.42
77147;BME280;66121;52.584;9.694;2023-04-24T03:47:36;99688.94;;;10.55;72.70
77147;BME280;66121;52.584;9.694;2023-04-24T03:50:01;99687.34;;;10.57;71.68
77147;BME280;66121;52.584;9.694;2023-04-24T03:52:27;99691.31;;;10.56;72.37
77147;BME280;66121;52.584;9.694;2023-04-24T03:54:52;99692.91;;;10.54;72.23
77147;BME280;66121;52.584;9.694;2023-04-24T03:57:17;99690.59;;;10.45;72.88
77147;BME280;66121;52.584;9.694;2023-04-24T03:59:43;99685.94;;;10.39;72.42
77147;BME280;66121;52.584;9.694;2023-04-24T04:02:08;99674.97;;;10.28;72.57
77147;BME280;66121;52.584;9.694;2023-04-24T04:04:33;99675.03;;;10.21;74.21
77147;BME280;66121;52.584;9.694;2023-04-24T04:06:59;99661.28;;;10.10;74.51
77147;BME280;66121;52.584;9.694;2023-04-24T04:09:29;99640.50;;;9.99;74.50
77147;BME280;66121;52.584;9.694;2023-04-24T04:11:56;99654.66;;;10.04;74.23
77147;BME280;66121;52.584;9.694;2023-04-24T04:14:22;99648.72;;;10.06;74.14
77147;BME280;66121;52.584;9.694;2023-04-24T04:16:48;99655.03;;;10.06;74.74
77147;BME280;66121;52.584;9.694;2023-04-24T04:19:13;99653.06;;;10.03;74.82
77147;BME280;66121;52.584;9.694;2023-04-24T04:21:39;99656.25;;;9.98;74.17
77147;BME280;66121;52.584;9.694;2023-04-24T04:24:04;99664.09;;;10.03;74.46
77147;BME280;66121;52.584;9.694;2023-04-24T04:26:30;99670.44;;;9.97;75.08
77147;BME280;66121;52.584;9.694;2023-04-24T04:28:58;99675.88;;;10.07;74.28
77147;BME280;66121;52.584;9.694;2023-04-24T04:31:23;99668.84;;;9.99;74.19
77147;BME280;66121;52.584;9.694;2023-04-24T04:33:49;99684.53;;;10.16;74.64
77147;BME280;66121;52.584;9.694;2023-04-24T04:36:15;99687.28;;;10.13;74.29
77147;BME280;66121;52.584;9.694;2023-04-24T04:38:42;99681.38;;;10.11;74.34
77147;BME280;66121;52.584;9.694;2023-04-24T04:41:08;99682.56;;;10.13;74.68
77147;BME280;66121;52.584;9.694;2023-04-24T04:43:33;99669.19;;;10.12;74.66
77147;BME280;66121;52.584;9.694;2023-04-24T04:45:59;99670.41;;;10.04;75.41
77147;BME280;66121;52.584;9.694;2023-04-24T04:48:26;99668.03;;;10.02;75.60
77147;BME280;66121;52.584;9.694;2023-04-24T04:50:52;99676.25;;;10.16;75.75
77147;BME280;66121;52.584;9.694;2023-04-24T04:53:17;99680.97;;;10.12;75.51
77147;BME280;66121;52.584;9.694;2023-04-24T04:55:43;99681.75;;;10.16;75.55
77147;BME280;66121;52.584;9.694;2023-04-24T04:58:08;99675.44;;;10.16;75.54
77147;BME280;66121;52.584;9.694;2023-04-24T05:00:33;99691.44;;;10.35;75.59
77147;BME280;66121;52.584;9.694;2023-04-24T05:03:01;99689.81;;;10.45;75.07
77147;BME280;66121;52.584;9.694;2023-04-24T05:05:26;99678.75;;;10.48;74.65
77147;BME280;66121;52.584;9.694;2023-04-24T05:07:52;99686.47;;;10.67;74.68
77147;BME280;66121;52.584;9.694;2023-04-24T05:10:17;99680.06;;;10.77;73.81
77147;BME280;66121;52.584;9.694;2023-04-24T05:12:42;99682.34;;;10.86;73.46
77147;BME280;66121;52.584;9.694;2023-04-24T05:15:08;99673.28;;;10.85;73.40
77147;BME280;66121;52.584;9.694;2023-04-24T05:17:33;99675.59;;;10.90;73.06
77147;BME280;66121;52.584;9.694;2023-04-24T05:19:58;99671.78;;;10.77;72.28
77147;BME280;66121;52.584;9.694;2023-04-24T05:22:24;99677.19;;;10.88;74.25
77147;BME280;66121;52.584;9.694;2023-04-24T05:24:49;99684.50;;;11.05;72.90
77147;BME280;66121;52.584;9.694;2023-04-24T05:27:14;99686.97;;;10.96;73.21
77147;BME280;66121;52.584;9.694;2023-04-24T05:29:40;99676.22;;;11.05;73.56
77147;BME280;66121;52.584;9.694;2023-04-24T05:32:05;99686.38;;;11.15;72.72
77147;BME280;66121;52.584;9.694;2023-04-24T05:34:31;99691.44;;;11.20;73.39
77147;BME280;66121;52.584;9.694;2023-04-24T05:36:56;99695.25;;;11.33;70.99
77147;BME280;66121;52.584;9.694;2023-04-24T05:39:22;99687.78;;;11.30;71.86
77147;BME280;66121;52.584;9.694;2023-04-24T05:41:47;99693.59;;;11.39;72.34
77147;BME280;66121;52.584;9.694;2023-04-24T05:44:12;99687.84;;;11.57;72.15
77147;BME280;66121;52.584;9.694;2023-04-24T05:46:37;99703.94;;;11.65;72.81
77147;BME280;66121;52.584;9.694;2023-04-24T05:49:03;99691.69;;;11.70;73.69
77147;BME280;66121;52.584;9.694;2023-04-24T05:51:28;99697.41;;;11.86;69.60
77147;BME280;66121;52.584;9.694;2023-04-24T05:53:54;99698.94;;;11.87;73.12
77147;BME280;66121;52.584;9.694;2023-04-24T05:56:19;99688.34;;;11.82;72.56
77147;BME280;66121;52.584;9.694;2023-04-24T05:58:45;99693.00;;;11.89;71.67
77147;BME280;66121;52.584;9.694;2023-04-24T06:01:11;99694.00;;;12.02;71.46
77147;BME280;66121;52.584;9.694;2023-04-24T06:03:38;99696.25;;;12.10;71.65
77147;BME280;66121;52.584;9.694;2023-04-24T06:06:03;99690.75;;;12.07;70.93
77147;BME280;66121;52.584;9.694;2023-04-24T06:08:29;99694.47;;;11.97;69.88
77147;BME280;66121;52.584;9.694;2023-04-24T06:10:54;99690.94;;;11.96;70.45
77147;BME280;66121;52.584;9.694;2023-04-24T06:13:19;99696.50;;;12.19;72.02
77147;BME280;66121;52.584;9.694;2023-04-24T06:15:45;99708.72;;;12.22;68.76
77147;BME280;66121;52.584;9.694;2023-04-24T06:18:10;99714.41;;;12.38;69.67
77147;BME280;66121;52.584;9.694;2023-04-24T06:20:35;99712.94;;;12.30;69.83
77147;BME280;66121;52.584;9.694;2023-04-24T06:23:01;99709.47;;;12.26;69.39
77147;BME280;66121;52.584;9.694;2023-04-24T06:25:26;99716.19;;;12.25;69.02
77147;BME280;66121;52.584;9.694;2023-04-24T06:27:52;99703.16;;;12.25;70.90
77147;BME280;66121;52.584;9.694;2023-04-24T06:30:17;99714.31;;;12.18;69.36
77147;BME280;66121;52.584;9.694;2023-04-24T06:32:42;99713.56;;;12.14;70.17
77147;BME280;66121;52.584;9.694;2023-04-24T06:35:08;99728.06;;;12.22;70.03
77147;BME280;66121;52.584;9.694;2023-04-24T06:37:34;99713.53;;;12.18;69.17
77147;BME280;66121;52.584;9.694;2023-04-24T06:40:00;99720.53;;;12.26;68.23
77147;BME280;66121;52.584;9.694;2023-04-24T06:42:25;99713.78;;;12.27;69.55
77147;BME280;66121;52.584;9.694;2023-04-24T06:44:51;99725.19;;;12.02;68.81
77147;BME280;66121;52.584;9.694;2023-04-24T06:47:16;99729.41;;;12.14;71.20
77147;BME280;66121;52.584;9.694;2023-04-24T06:49:42;99728.38;;;12.01;68.88
77147;BME280;66121;52.584;9.694;2023-04-24T06:52:07;99728.75;;;11.73;67.76
77147;BME280;66121;52.584;9.694;2023-04-24T06:54:33;99741.56;;;11.56;68.92
77147;BME280;66121;52.584;9.694;2023-04-24T06:57:00;99746.28;;;11.55;70.13
77147;BME280;66121;52.584;9.694;2023-04-24T06:59:26;99742.13;;;11.40;68.67
77147;BME280;66121;52.584;9.694;2023-04-24T07:01:52;99734.09;;;11.16;68.76
77147;BME280;66121;52.584;9.694;2023-04-24T07:04:17;99750.88;;;11.35;67.72
77147;BME280;66121;52.584;9.694;2023-04-24T07:06:45;99753.41;;;11.56;68.69
77147;BME280;66121;52.584;9.694;2023-04-24T07:09:10;99741.84;;;11.65;68.78
77147;BME280;66121;52.584;9.694;2023-04-24T07:11:36;99740.97;;;12.05;68.22
77147;BME280;66121;52.584;9.694;2023-04-24T07:14:03;99738.94;;;13.52;64.66
77147;BME280;66121;52.584;9.694;2023-04-24T07:16:28;99751.50;;;13.37;64.12
77147;BME280;66121;52.584;9.694;2023-04-24T07:18:53;99758.78;;;13.50;63.67
77147;BME280;66121;52.584;9.694;2023-04-24T07:21:19;99756.34;;;13.52;63.85
77147;BME280;66121;52.584;9.694;2023-04-24T07:23:44;99755.88;;;13.15;62.05
77147;BME280;66121;52.584;9.694;2023-04-24T07:26:09;99756.47;;;13.26;64.33
77147;BME280;66121;52.584;9.694;2023-04-24T07:28:35;99763.19;;;13.02;62.34
77147;BME280;66121;52.584;9.694;2023-04-24T07:31:00;99756.56;;;12.72;64.04
77147;BME280;66121;52.584;9.694;2023-04-24T07:33:26;99745.25;;;12.63;64.74
77147;BME280;66121;52.584;9.694;2023-04-24T07:35:51;99766.50;;;12.93;64.25
77147;BME280;66121;52.584;9.694;2023-04-24T07:38:17;99766.91;;;12.68;62.31
77147;BME280;66121;52.584;9.694;2023-04-24T07:40:45;99753.03;;;12.45;63.64
77147;BME280;66121;52.584;9.694;2023-04-24T07:43:10;99763.47;;;12.34;64.38
77147;BME280;66121;52.584;9.694;2023-04-24T07:45:36;99771.28;;;12.12;65.20
77147;BME280;66121;52.584;9.694;2023-04-24T07:48:02;99769.53;;;12.25;65.39
77147;BME280;66121;52.584;9.694;2023-04-24T07:50:28;99771.59;;;12.45;62.73
77147;BME280;66121;52.584;9.694;2023-04-24T07:52:53;99780.19;;;12.54;64.35
77147;BME280;66121;52.584;9.694;2023-04-24T07:55:18;99774.72;;;12.47;63.98
77147;BME280;66121;52.584;9.694;2023-04-24T07:57:43;99788.63;;;12.43;64.94
77147;BME280;66121;52.584;9.694;2023-04-24T08:00:09;99790.50;;;12.23;64.66
77147;BME280;66121;52.584;9.694;2023-04-24T08:02:35;99786.16;;;12.22;65.09
77147;BME280;66121;52.584;9.694;2023-04-24T08:05:00;99796.03;;;11.93;64.43
77147;BME280;66121;52.584;9.694;2023-04-24T08:07:26;99784.63;;;11.87;67.08
77147;BME280;66121;52.584;9.694;2023-04-24T08:09:51;99800.22;;;12.04;66.31
77147;BME280;66121;52.584;9.694;2023-04-24T08:12:16;99790.78;;;11.64;65.26
77147;BME280;66121;52.584;9.694;2023-04-24T08:14:42;99794.28;;;11.72;64.79
77147;BME280;66121;52.584;9.694;2023-04-24T08:17:07;99782.41;;;11.75;65.61
77147;BME280;66121;52.584;9.694;2023-04-24T08:19:32;99809.63;;;11.77;66.36
77147;BME280;66121;52.584;9.694;2023-04-24T08:21:58;99806.56;;;11.68;65.16
77147;BME280;66121;52.584;9.694;2023-04-24T08:24:23;99810.13;;;11.68;66.11
77147;BME280;66121;52.584;9.694;2023-04-24T08:26:48;99811.72;;;11.65;65.94
77147;BME280;66121;52.584;9.694;2023-04-24T08:29:19;99811.75;;;11.62;65.53
77147;BME280;66121;52.584;9.694;2023-04-24T08:31:44;99820.53;;;11.53;68.38
77147;BME280;66121;52.584;9.694;2023-04-24T08:34:10;99819.75;;;11.49;67.93
77147;BME280;66121;52.584;9.694;2023-04-24T08:36:36;99813.53;;;11.42;68.04
77147;BME280;66121;52.584;9.694;2023-04-24T08:39:01;99821.97;;;11.65;66.65
77147;BME280;66121;52.584;9.694;2023-04-24T08:41:27;99822.50;;;11.90;66.30
77147;BME280;66121;52.584;9.694;2023-04-24T08:43:53;99825.31;;;12.20;65.16
77147;BME280;66121;52.584;9.694;2023-04-24T08:46:20;99801.34;;;12.10;64.76
77147;BME280;66121;52.584;9.694;2023-04-24T08:48:45;99820.84;;;12.26;65.45
77147;BME280;66121;52.584;9.694;2023-04-24T08:51:11;99826.22;;;12.67;64.49
77147;BME280;66121;52.584;9.694;2023-04-24T08:53:37;99827.63;;;13.06;63.98
77147;BME280;66121;52.584;9.694;2023-04-24T08:56:03;99824.84;;;12.79;64.30
77147;BME280;66121;52.584;9.694;2023-04-24T08:58:29;99824.84;;;12.79;63.14
77147;BME280;66121;52.584;9.694;2023-04-24T09:00:56;99817.78;;;12.78;63.38
77147;BME280;66121;52.584;9.694;2023-04-24T09:03:21;99821.28;;;12.55;64.37
77147;BME280;66121;52.584;9.694;2023-04-24T09:05:47;99823.50;;;12.37;64.88
77147;BME280;66121;52.584;9.694;2023-04-24T09:08:16;99830.47;;;12.18;65.19
77147;BME280;66121;52.584;9.694;2023-04-24T09:10:42;99817.09;;;12.13;63.19
77147;BME280;66121;52.584;9.694;2023-04-24T09:13:07;99818.22;;;11.86;63.65
77147;BME280;66121;52.584;9.694;2023-04-24T09:15:37;99831.00;;;11.73;64.31
77147;BME280;66121;52.584;9.694;2023-04-24T09:18:02;99828.03;;;11.53;64.84
77147;BME280;66121;52.584;9.694;2023-04-24T09:20:28;99821.72;;;11.52;65.17
77147;BME280;66121;52.584;9.694;2023-04-24T09:22:54;99824.78;;;11.61;65.93
77147;BME280;66121;52.584;9.694;2023-04-24T09:25:20;99823.50;;;11.73;65.44
77147;BME280;66121;52.584;9.694;2023-04-24T09:27:46;99826.19;;;12.14;65.62
77147;BME280;66121;52.584;9.694;2023-04-24T09:30:12;99822.66;;;12.40;63.68
77147;BME280;66121;52.584;9.694;2023-04-24T09:32:38;99821.16;;;12.62;64.13
77147;BME280;66121;52.584;9.694;2023-04-24T09:35:13;99821.28;;;13.05;62.99
77147;BME280;66121;52.584;9.694;2023-04-24T09:37:42;99827.75;;;13.45;63.62
77147;BME280;66121;52.584;9.694;2023-04-24T09:40:17;99828.22;;;13.63;62.34
77147;BME280;66121;52.584;9.694;2023-04-24T09:42:50;99831.56;;;13.31;60.69
77147;BME280;66121;52.584;9.694;2023-04-24T09:45:16;99836.25;;;12.84;60.77
77147;BME280;66121;52.584;9.694;2023-04-24T09:47:42;99828.47;;;12.76;62.18
77147;BME280;66121;52.584;9.694;2023-04-24T09:50:15;99828.06;;;12.77;62.76
77147;BME280;66121;52.584;9.694;2023-04-24T09:52:46;99828.16;;;12.70;61.80
77147;BME280;66121;52.584;9.694;2023-04-24T09:55:15;99819.41;;;12.18;61.71
77147;BME280;66121;52.584;9.694;2023-04-24T10:00:19;99842.53;;;12.32;61.93
77147;BME280;66121;52.584;9.694;2023-04-24T10:02:44;99830.41;;;12.22;62.15
77147;BME280;66121;52.584;9.694;2023-04-24T10:05:11;99831.53;;;12.28;62.82
77147;BME280;66121;52.584;9.694;2023-04-24T10:07:37;99837.53;;;12.50;62.73
77147;BME280;66121;52.584;9.694;2023-04-24T10:10:03;99851.38;;;12.50;61.79
77147;BME280;66121;52.584;9.694;2023-04-24T10:12:29;99831.56;;;12.24;61.98
77147;BME280;66121;52.584;9.694;2023-04-24T10:14:56;99826.59;;;12.12;62.03
77147;BME280;66121;52.584;9.694;2023-04-24T10:17:22;99832.63;;;12.04;63.09
77147;BME280;66121;52.584;9.694;2023-04-24T10:19:50;99840.59;;;11.98;62.84
77147;BME280;66121;52.584;9.694;2023-04-24T10:22:17;99829.94;;;11.97;64.15
77147;BME280;66121;52.584;9.694;2023-04-24T10:24:44;99836.75;;;11.89;64.57
77147;BME280;66121;52.584;9.694;2023-04-24T10:27:10;99842.84;;;11.73;64.03
77147;BME280;66121;52.584;9.694;2023-04-24T10:29:38;99833.28;;;11.81;63.54
77147;BME280;66121;52.584;9.694;2023-04-24T10:32:07;99834.31;;;11.94;64.36
77147;BME280;66121;52.584;9.694;2023-04-24T10:34:32;99837.81;;;11.98;64.32
77147;BME280;66121;52.584;9.694;2023-04-24T10:36:57;99830.34;;;12.56;63.60
77147;BME280;66121;52.584;9.694;2023-04-24T10:39:23;99813.69;;;12.86;60.93
77147;BME280;66121;52.584;9.694;2023-04-24T10:41:49;99816.38;;;12.89;62.69
77147;BME280;66121;52.584;9.694;2023-04-24T10:44:16;99821.44;;;12.94;61.71
77147;BME280;66121;52.584;9.694;2023-04-24T10:46:46;99825.16;;;12.84;61.61
77147;BME280;66121;52.584;9.694;2023-04-24T10:49:13;99811.03;;;12.52;61.85
77147;BME280;66121;52.584;9.694;2023-04-24T10:51:50;99829.34;;;12.12;62.63
77147;BME280;66121;52.584;9.694;2023-04-24T10:54:22;99833.50;;;12.27;63.29
77147;BME280;66121;52.584;9.694;2023-04-24T10:56:48;99831.22;;;12.49;63.07
77147;BME280;66121;52.584;9.694;2023-04-24T10:59:24;99841.81;;;12.27;64.23
77147;BME280;66121;52.584;9.694;2023-04-24T11:01:54;99831.88;;;12.00;62.42
77147;BME280;66121;52.584;9.694;2023-04-24T11:04:31;99838.75;;;13.02;60.41
77147;BME280;66121;52.584;9.694;2023-04-24T11:06:57;99849.44;;;13.50;59.56
77147;BME280;66121;52.584;9.694;2023-04-24T11:09:26;99851.06;;;13.24;61.77
77147;BME280;66121;52.584;9.694;2023-04-24T11:12:02;99840.78;;;13.25;61.30
77147;BME280;66121;52.584;9.694;2023-04-24T11:14:29;99851.06;;;13.47;60.65
77147;BME280;66121;52.584;9.694;2023-04-24T11:16:54;99853.50;;;13.45;58.21
77147;BME280;66121;52.584;9.694;2023-04-24T11:19:24;99839.31;;;13.17;60.59
77147;BME280;66121;52.584;9.694;2023-04-24T11:22:05;99848.16;;;13.54;59.86
77147;BME280;66121;52.584;9.694;2023-04-24T11:24:40;99837.56;;;13.03;60.90
77147;BME280;66121;52.584;9.694;2023-04-24T11:27:15;99832.38;;;12.52;60.16
77147;BME280;66121;52.584;9.694;2023-04-24T11:29:42;99842.13;;;12.63;60.80
77147;BME280;66121;52.584;9.694;2023-04-24T11:32:19;99841.25;;;12.40;61.65
77147;BME280;66121;52.584;9.694;2023-04-24T11:34:49;99843.88;;;12.20;62.71
77147;BME280;66121;52.584;9.694;2023-04-24T11:37:15;99840.09;;;12.37;62.64
77147;BME280;66121;52.584;9.694;2023-04-24T11:39:41;99835.34;;;12.64;61.72
77147;BME280;66121;52.584;9.694;2023-04-24T11:42:07;99841.06;;;12.80;61.29
77147;BME280;66121;52.584;9.694;2023-04-24T11:44:33;99844.69;;;12.47;63.17
77147;BME280;66121;52.584;9.694;2023-04-24T11:46:59;99837.88;;;12.25;62.26
77147;BME280;66121;52.584;9.694;2023-04-24T11:49:25;99851.06;;;12.14;63.37
77147;BME280;66121;52.584;9.694;2023-04-24T11:51:50;99861.03;;;12.04;62.72
77147;BME280;66121;52.584;9.694;2023-04-24T11:54:19;99855.84;;;12.10;62.30
77147;BME280;66121;52.584;9.694;2023-04-24T11:56:47;99866.06;;;12.16;62.42
77147;BME280;66121;52.584;9.694;2023-04-24T11:59:12;99862.25;;;12.03;63.21
77147;BME280;66121;52.584;9.694;2023-04-24T12:01:47;99866.22;;;12.02;63.93
77147;BME280;66121;52.584;9.694;2023-04-24T12:04:14;99863.19;;;11.90;63.93
77147;BME280;66121;52.584;9.694;2023-04-24T12:06:39;99863.88;;;12.01;63.93
77147;BME280;66121;52.584;9.694;2023-04-24T12:09:05;99874.75;;;11.81;63.87
77147;BME280;66121;52.584;9.694;2023-04-24T12:11:30;99871.31;;;11.67;62.86
77147;BME280;66121;52.584;9.694;2023-04-24T12:13:55;99867.22;;;11.82;64.12
77147;BME280;66121;52.584;9.694;2023-04-24T12:16:21;99877.13;;;11.79;64.98
77147;BME280;66121;52.584;9.694;2023-04-24T12:18:46;99877.34;;;11.95;64.28
77147;BME280;66121;52.584;9.694;2023-04-24T12:21:16;99873.69;;;12.05;64.32
77147;BME280;66121;52.584;9.694;2023-04-24T12:23:43;99882.97;;;11.88;64.14
77147;BME280;66121;52.584;9.694;2023-04-24T12:26:09;99875.63;;;11.68;64.26
77147;BME280;66121;52.584;9.694;2023-04-24T12:28:36;99874.13;;;11.59;63.74
77147;BME280;66121;52.584;9.694;2023-04-24T12:31:02;99879.00;;;11.45;64.94
77147;BME280;66121;52.584;9.694;2023-04-24T12:33:27;99885.94;;;11.63;65.68
77147;BME280;66121;52.584;9.694;2023-04-24T12:35:54;99881.75;;;11.45;65.19
77147;BME280;66121;52.584;9.694;2023-04-24T12:38:25;99883.56;;;11.62;65.24
77147;BME280;66121;52.584;9.694;2023-04-24T12:41:08;99889.00;;;11.76;65.86
77147;BME280;66121;52.584;9.694;2023-04-24T12:43:34;99890.69;;;11.63;65.41
77147;BME280;66121;52.584;9.694;2023-04-24T12:46:00;99888.75;;;11.12;65.32
77147;BME280;66121;52.584;9.694;2023-04-24T12:48:26;99905.75;;;11.07;67.22
77147;BME280;66121;52.584;9.694;2023-04-24T12:50:51;99900.13;;;11.21;67.86
77147;BME280;66121;52.584;9.694;2023-04-24T12:53:17;99900.50;;;11.23;66.83
77147;BME280;66121;52.584;9.694;2023-04-24T12:55:42;99900.16;;;11.18;66.86
77147;BME280;66121;52.584;9.694;2023-04-24T12:58:08;99906.78;;;11.27;67.73